Weather reports worldwide

Advertisment
Viso Del Marques, Spain (8345): temperature & dewpoint: 12.01.2020 14:00:00 - 18.01.2020 14:00:00 (CET)Viso Del Marques, Spain (8345): wind speed & gusts: 12.01.2020 14:00:00 - 18.01.2020 14:00:00 (CET)Viso Del Marques, Spain (8345): wind direction: 12.01.2020 14:00:00 - 18.01.2020 14:00:00 (CET)Viso Del Marques, Spain (8345): precipitation: 12.01.2020 14:00:00 - 18.01.2020 14:00:00 (CET)
Date & Time tt [°C] td [°C] ff [km/h] ff [kn] fx [km/h] fx [kn] dd rr [mm]
18.01.2020 14:00:00 - - - - - - - -
18.01.2020 13:00:00 5,9 1,1 15 8 26 14 S -
18.01.2020 12:00:00 5,6 1,5 15 8 19 10 SSE 0,0
18.01.2020 11:00:00 5,1 1,3 12 7 18 10 S 0,1
18.01.2020 10:00:00 4,5 0,9 13 7 17 9 SSE 0,8
18.01.2020 09:00:00 4,5 0,6 7 4 10 5 ESE 1,5
18.01.2020 08:00:00 4,1 0,0 3 2 27 14 S 0,1
18.01.2020 07:00:00 3,6 -0,7 12 7 19 10 NNE -
18.01.2020 06:00:00 4,1 0,0 1 1 6 3 SE 0,0
18.01.2020 05:00:00 3,2 -0,5 2 1 7 4 S 0,0
18.01.2020 04:00:00 2,6 -1,0 3 2 11 6 W 0,0
18.01.2020 03:00:00 3,6 -0,7 5 3 15 8 WNW 0,0
18.01.2020 02:00:00 3,9 -0,5 13 7 16 9 ESE 0,0
18.01.2020 01:00:00 4,2 -0,7 10 6 13 7 ESE -
18.01.2020 00:00:00 3,4 -1,7 5 3 9 5 NE 0,0
17.01.2020 23:00:00 4,3 -1,4 1 0 4 2 NNE 0,0
17.01.2020 22:00:00 4,9 -1,0 2 1 6 4 NE 0,0
17.01.2020 21:00:00 5,5 -0,7 4 2 5 3 SW 0,0
17.01.2020 20:00:00 6,4 -0,5 2 1 4 2 SW 0,0
17.01.2020 19:00:00 7,2 -0,3 1 1 9 5 SSW -
17.01.2020 18:00:00 8,7 0,4 6 4 15 8 NW 0,0
17.01.2020 17:00:00 10,2 0,9 9 5 18 10 WNW 0,0
17.01.2020 16:00:00 11,0 1,3 9 5 21 12 WNW 0,0
17.01.2020 15:00:00 10,5 1,3 8 5 23 13 WNW 0,0
17.01.2020 14:00:00 10,5 1,5 16 9 24 13 WSW 0,0
17.01.2020 13:00:00 10,8 2,1 11 6 24 13 WNW -
17.01.2020 12:00:00 9,4 1,7 19 10 32 18 WSW 0,0
17.01.2020 11:00:00 8,5 1,9 22 12 29 16 WSW 0,0
17.01.2020 10:00:00 6,8 1,5 11 6 22 12 SW 0,0
17.01.2020 09:00:00 5,1 -0,3 14 7 19 10 WSW 0,0
17.01.2020 08:00:00 5,6 -0,3 10 5 20 11 W 0,0
17.01.2020 07:00:00 6,1 -1,2 12 7 26 14 WSW -
17.01.2020 06:00:00 6,0 -2,7 14 7 22 12 WSW 0,0
17.01.2020 05:00:00 4,8 -3,9 7 4 21 12 SW 0,0
17.01.2020 04:00:00 4,6 -4,8 12 6 20 11 SW 0,0
17.01.2020 03:00:00 4,1 -5,1 5 3 15 8 SW 0,0
17.01.2020 02:00:00 5,1 -4,2 5 3 23 12 W 0,0
17.01.2020 01:00:00 3,2 -5,4 9 5 16 9 SW -
17.01.2020 00:00:00 5,3 -4,5 8 4 18 10 WSW 0,0
16.01.2020 23:00:00 4,7 -5,1 14 8 20 11 WSW 0,0
16.01.2020 22:00:00 5,8 -4,2 3 1 17 9 W 0,0
16.01.2020 21:00:00 4,7 -5,1 10 5 14 8 SW 0,0
16.01.2020 20:00:00 6,4 -3,9 5 3 10 5 SW 0,0
16.01.2020 19:00:00 6,4 -3,9 7 4 19 10 SSW -
16.01.2020 18:00:00 8,4 -2,5 7 4 23 12 SW 0,0
16.01.2020 17:00:00 10,3 -2,5 16 9 27 14 SSW 0,0
16.01.2020 16:00:00 11,8 -1,0 13 7 20 11 SW 0,0
16.01.2020 15:00:00 11,8 -1,0 14 8 22 12 SW 0,0
16.01.2020 14:00:00 - - 16 9 23 12 SW 0,0
16.01.2020 13:00:00 11,2 -1,0 14 7 21 11 S -
16.01.2020 12:00:00 10,0 3,0 4 2 10 5 SE 0,0
16.01.2020 11:00:00 6,7 3,9 1 1 5 3 ENE 0,0
16.01.2020 10:00:00 3,0 1,1 1 0 8 5 NE 0,0
16.01.2020 09:00:00 -0,6 -2,5 6 3 8 5 NE 0,0
16.01.2020 08:00:00 -0,6 -2,5 7 4 8 4 ENE 0,0
16.01.2020 07:00:00 0,9 -1,0 5 3 8 5 E -
16.01.2020 06:00:00 1,1 -0,7 5 3 13 7 ENE 0,0
16.01.2020 05:00:00 0,9 -1,0 6 3 9 5 ENE 0,0
16.01.2020 04:00:00 2,0 0,0 5 3 7 4 ENE 0,0
16.01.2020 03:00:00 2,3 0,0 5 3 6 3 NE 0,0
16.01.2020 02:00:00 3,5 1,1 0 0 4 2 N 0,0
16.01.2020 01:00:00 3,7 0,6 4 2 5 3 NE -
16.01.2020 00:00:00 4,7 1,5 1 1 7 4 NE 0,0
15.01.2020 23:00:00 3,8 0,4 4 2 6 3 N 0,0
15.01.2020 22:00:00 4,6 0,6 1 1 7 4 N 0,0
15.01.2020 21:00:00 5,8 0,9 1 1 12 7 E 0,0
15.01.2020 20:00:00 6,3 1,7 10 5 13 7 SE 0,0
15.01.2020 19:00:00 6,6 1,3 10 5 14 7 SE -
15.01.2020 18:00:00 8,4 1,1 3 1 21 12 S 0,0
15.01.2020 17:00:00 9,5 -0,3 13 7 23 12 SSW 0,0
15.01.2020 16:00:00 10,3 0,0 13 7 24 13 SW 0,0
15.01.2020 15:00:00 10,6 0,0 18 10 31 17 WSW 0,0
15.01.2020 14:00:00 10,2 -0,3 19 10 31 17 SSW 0,0
15.01.2020 13:00:00 9,4 -1,4 22 12 31 17 WSW -
15.01.2020 12:00:00 9,0 0,4 8 5 25 13 S 0,0
15.01.2020 11:00:00 6,6 2,7 9 5 16 9 ESE 0,0
15.01.2020 10:00:00 3,3 1,3 5 3 16 9 E 0,0
15.01.2020 09:00:00 1,3 -0,7 7 4 16 9 ESE 0,0
15.01.2020 08:00:00 0,4 -1,4 10 6 13 7 ESE 0,0
15.01.2020 07:00:00 -0,6 -2,5 5 3 10 5 E -
15.01.2020 06:00:00 0,1 -1,7 2 1 11 6 N 0,0
15.01.2020 05:00:00 0,7 -1,2 9 5 10 5 E 0,0
15.01.2020 04:00:00 -0,2 -2,2 5 3 8 4 N 0,0
15.01.2020 03:00:00 0,7 -1,4 2 1 7 4 S 0,0
15.01.2020 02:00:00 1,8 -0,3 3 1 8 4 WSW 0,0
15.01.2020 01:00:00 1,6 -0,3 4 2 9 5 W -
15.01.2020 00:00:00 0,6 -1,4 1 1 6 3 NNE 0,0
14.01.2020 23:00:00 1,3 -1,0 5 3 8 4 E 0,0
14.01.2020 22:00:00 1,6 -0,7 0 0 4 2 N 0,0
14.01.2020 21:00:00 2,3 -0,3 0 0 7 4 W 0,0
14.01.2020 20:00:00 2,8 0,0 7 4 12 6 SE 0,0
14.01.2020 19:00:00 3,7 0,0 3 2 8 5 S -
14.01.2020 18:00:00 4,1 -0,3 6 4 19 11 SW 0,0
14.01.2020 17:00:00 6,2 -1,7 14 8 20 11 SW 0,0
14.01.2020 16:00:00 7,3 0,2 8 4 16 9 NW 0,0
14.01.2020 15:00:00 7,5 0,2 4 2 13 7 NNW 0,0
14.01.2020 14:00:00 7,2 1,3 4 2 11 6 WNW 0,0
14.01.2020 13:00:00 6,7 0,6 3 1 10 5 WNW -
14.01.2020 12:00:00 5,1 1,1 4 2 8 4 NNW 0,0
14.01.2020 11:00:00 0,3 -1,7 3 1 5 3 NE 0,0
14.01.2020 10:00:00 -2,5 -4,5 4 2 9 5 NE 0,0
14.01.2020 09:00:00 -4,2 -6,0 2 1 5 3 NE 0,0
14.01.2020 08:00:00 -3,6 -5,4 5 3 7 4 ENE 0,0
14.01.2020 07:00:00 -3,5 -5,4 3 1 4 2 NNE -
14.01.2020 06:00:00 -3,4 -5,4 2 1 9 5 ENE 0,0
14.01.2020 05:00:00 -3,1 -5,1 5 3 6 3 NNE 0,0
14.01.2020 04:00:00 -2,6 -4,5 1 1 6 3 ENE 0,0
14.01.2020 03:00:00 -2,7 -4,5 3 2 8 5 NE 0,0
14.01.2020 02:00:00 -1,8 -3,9 1 0 5 3 SSE 0,0
14.01.2020 01:00:00 -1,6 -3,6 4 2 7 4 NE -
14.01.2020 00:00:00 0,6 -2,2 4 2 7 4 ESE 0,0
13.01.2020 23:00:00 1,1 -1,7 0 0 3 1 N 0,0
13.01.2020 22:00:00 1,3 -1,7 2 1 6 3 NNE 0,0
13.01.2020 21:00:00 2,6 -1,4 1 1 5 3 NNW 0,0
13.01.2020 20:00:00 3,0 -2,2 0 0 5 3 W 0,0
13.01.2020 19:00:00 3,8 -2,2 5 3 10 5 SSW -
13.01.2020 18:00:00 5,1 -1,7 8 4 14 8 SW 0,0
13.01.2020 17:00:00 7,2 -2,7 11 6 15 8 WSW 0,0
13.01.2020 16:00:00 8,8 -2,7 9 5 16 8 SSW 0,0
13.01.2020 15:00:00 8,5 -1,4 9 5 19 10 WSW 0,0
13.01.2020 14:00:00 8,6 -0,3 3 1 6 4 NNW 0,0
13.01.2020 13:00:00 7,5 0,0 2 1 5 3 NNW -
13.01.2020 12:00:00 5,6 -0,5 1 1 4 2 N 0,0
13.01.2020 11:00:00 2,5 0,0 2 1 5 3 SSE 0,0
13.01.2020 10:00:00 -1,1 -3,0 1 0 7 4 SSE 0,0
13.01.2020 09:00:00 -4,0 -5,7 4 2 5 3 NNE 0,0
13.01.2020 08:00:00 -3,9 -5,7 1 0 5 3 ENE 0,0
13.01.2020 07:00:00 -3,8 -5,7 3 2 9 5 NNE -
13.01.2020 06:00:00 -3,5 -5,4 6 4 9 5 ENE 0,0
13.01.2020 05:00:00 -2,8 -4,8 0 0 4 2 E 0,0
13.01.2020 04:00:00 -2,7 -4,5 1 0 6 3 SSE 0,0
13.01.2020 03:00:00 -2,7 -4,8 5 3 6 3 NNE 0,0
13.01.2020 02:00:00 -0,2 -3,0 2 1 3 2 SSW 0,0
13.01.2020 01:00:00 0,1 -2,7 1 0 3 1 SSW -
13.01.2020 00:00:00 -0,3 -3,0 4 2 5 3 NE 0,0
12.01.2020 23:00:00 1,4 -2,2 0 0 3 2 ESE 0,0
12.01.2020 22:00:00 1,4 -2,5 3 1 5 3 SSW 0,0
12.01.2020 21:00:00 3,2 -1,7 0 0 3 2 N 0,0
12.01.2020 20:00:00 2,9 -2,5 3 2 4 2 SSW 0,0
12.01.2020 19:00:00 5,0 -2,5 1 1 6 4 WSW -
12.01.2020 18:00:00 7,3 -3,6 4 2 11 6 NNW 0,0
12.01.2020 17:00:00 8,2 -3,3 6 3 12 6 N 0,0
12.01.2020 16:00:00 10,4 -1,7 3 2 11 6 WNW 0,0
12.01.2020 15:00:00 9,7 -1,4 4 2 11 6 W 0,0
12.01.2020 14:00:00 8,6 -1,0 5 3 11 6 WNW 0,0

tt = temperature
td = dewpoint
ff = wind speed
fx = gusts
dd = wind direction
rr = precipitation

Next stations